PWSweather.com
Personal Weather Stations
Station Observations
WISCHPK61
Green Bay Schmitt Park, Green Bay, WI 54311

Green Bay Schmitt ParkGreen Bay, WI 54311

Lat: 44.514277, Lon: -87.935067

Elevation: 735

Station Type: Acu Rite Pro Weather Center model 02032C

http://greenbayweathercam.com

High Low Average
Temperature 79.6°F26.4°C 60.1°F15.6°C 67.9°F19.9°C
Dew Point 79.3°F26.3°C 52.3°F11.3°C 65.5°F18.6°C
Winds 2.3 mph 3.7 kmh Calm Calm Calm SSECalm SSE
Wind Gusts 4.6 mph7.4 kmh -- 1.0 mph1.6 kmh
Humidity 99% 68% 93%
Pressure 29.35 in993.9 mb 28.97 in981.0 mb -
Precipitation 0.00 in0.0 mm - -
Hour Temp Dew Point Humidity Winds Wind Gusts Pressure Precip Precip Rate Daily Precip Total
12:00 AM 60.1°F15.6°C 59.8°F15.4°C 99% Calm Calm -- 29.35 in993.9 mb - 0.00 in0.0 mm 0.00 in0.0 mm
01:00 AM 60.6°F15.9°C 52.3°F11.3°C 74% Calm Calm -- 29.32 in992.9 mb - 0.00 in0.0 mm 0.00 in0.0 mm
02:00 AM 61.7°F16.5°C 61.4°F16.3°C 99% Calm Calm -- 29.32 in992.9 mb - 0.00 in0.0 mm 0.00 in0.0 mm
03:00 AM 62.8°F17.1°C 62.5°F16.9°C 99% 1.2 mph S1.9 kmh S -- 29.32 in992.9 mb - 0.00 in0.0 mm 0.00 in0.0 mm
04:00 AM 62.1°F16.7°C 54.4°F12.4°C 76% 1.2 mph SSE1.9 kmh SSE 3.5 mph5.6 kmh 29.30 in992.2 mb - 0.00 in0.0 mm 0.00 in0.0 mm
05:00 AM 62.1°F16.7°C 61.8°F16.6°C 99% Calm Calm 1.2 mph1.9 kmh 29.29 in991.9 mb - 0.00 in0.0 mm 0.00 in0.0 mm
06:00 AM 62.6°F17.0°C 62.3°F16.8°C 99% Calm Calm 1.2 mph1.9 kmh 29.27 in991.2 mb - 0.00 in0.0 mm 0.00 in0.0 mm
07:00 AM 63.5°F17.5°C 63.2°F17.3°C 99% Calm Calm 1.2 mph1.9 kmh 29.25 in990.5 mb - 0.00 in0.0 mm 0.00 in0.0 mm
08:00 AM 65.7°F18.7°C 59.4°F15.2°C 80% Calm Calm -- 29.22 in989.5 mb - 0.00 in0.0 mm 0.00 in0.0 mm
09:00 AM 70.0°F21.1°C 69.7°F20.9°C 99% 2.3 mph ESE3.7 kmh ESE 4.6 mph7.4 kmh 29.19 in988.5 mb - 0.00 in0.0 mm 0.00 in0.0 mm
10:00 AM 71.4°F21.9°C 64.9°F18.3°C 80% Calm Calm -- 29.21 in989.2 mb - 0.00 in0.0 mm 0.00 in0.0 mm
11:00 AM 75.1°F23.9°C 67.0°F19.4°C 76% Calm Calm -- 29.21 in989.2 mb - 0.00 in0.0 mm 0.00 in0.0 mm
12:00 PM 79.5°F26.4°C 79.2°F26.2°C 99% Calm Calm -- 29.20 in988.8 mb - 0.00 in0.0 mm 0.00 in0.0 mm
01:00 PM 79.6°F26.4°C 79.3°F26.3°C 99% 1.2 mph SE1.9 kmh SE 1.2 mph1.9 kmh 29.16 in987.5 mb - 0.00 in0.0 mm 0.00 in0.0 mm
02:00 PM 75.9°F24.4°C 75.6°F24.2°C 99% 1.2 mph SE1.9 kmh SE 1.2 mph1.9 kmh 29.14 in986.8 mb - 0.00 in0.0 mm 0.00 in0.0 mm
03:00 PM 73.1°F22.8°C 72.8°F22.7°C 99% 1.2 mph S1.9 kmh S -- 29.12 in986.1 mb - 0.00 in0.0 mm 0.00 in0.0 mm
04:00 PM 72.1°F22.3°C 71.8°F22.1°C 99% 1.2 mph SSE1.9 kmh SSE 1.2 mph1.9 kmh 29.09 in985.1 mb - 0.00 in0.0 mm 0.00 in0.0 mm
05:00 PM 72.5°F22.5°C 72.2°F22.3°C 99% Calm Calm -- 29.06 in984.1 mb - 0.00 in0.0 mm 0.00 in0.0 mm
06:00 PM 71.8°F22.1°C 60.7°F15.9°C 68% Calm Calm -- 29.05 in983.7 mb - 0.00 in0.0 mm 0.00 in0.0 mm
07:00 PM 68.2°F20.1°C 67.9°F19.9°C 99% Calm Calm -- 29.03 in983.1 mb - 0.00 in0.0 mm 0.00 in0.0 mm
08:00 PM 65.8°F18.8°C 65.5°F18.6°C 99% Calm Calm -- 29.02 in982.7 mb - 0.00 in0.0 mm 0.00 in0.0 mm
09:00 PM 64.6°F18.1°C 60.0°F15.6°C 85% Calm Calm -- 29.00 in982.1 mb - 0.00 in0.0 mm 0.00 in0.0 mm
10:00 PM 64.2°F17.9°C 63.9°F17.7°C 99% Calm Calm -- 28.99 in981.7 mb - 0.00 in0.0 mm 0.00 in0.0 mm
11:00 PM 64.8°F18.2°C 64.5°F18.1°C 99% Calm Calm -- 28.97 in981.0 mb - 0.00 in0.0 mm 0.00 in0.0 mm